AirNav   Air Wisconsin Up To $57,000 Bonus
 
 997 users online  

1CD1 Reed International Airport
Nunn, Colorado, USA

GOING TO NUNN?


FAA INFORMATION EFFECTIVE 05 NOVEMBER 2020

Location

FAA Identifier: 1CD1
Lat/Long: 40-41-25.0000N 104-52-00.0000W
40-41.416667N 104-52.000000W
40.6902778,-104.8666667
(estimated)
Elevation: 5350 ft. / 1631 m (estimated)
From city: 4 miles W of NUNN, CO
Time zone: UTC -7 (UTC -6 during Daylight Saving Time)
Zip code: 80650

Airport Operations

Airport use: Private use. Permission required prior to landing
Activation date: 05/2006
Control tower: no
ARTCC: DENVER CENTER
FSS: DENVER FLIGHT SERVICE STATION
Attendance: UNATNDD
Wind indicator: yes
Segmented circle: no
Lights: UPON REQUEST

Airport Communications

WX AWOS-3PT at FNL (16 nm SW): 135.075 (970-669-9187)
WX AWOS-3PT at GXY (19 nm SE): 135.175 (970-352-3511)

Nearby radio navigation aids

VOR radial/distance  VOR name  Freq  Var
GLLr295/18.1GILL VOR/DME114.2013E
CYSr175/31.5CHEYENNE VORTAC113.1013E

Airport Services

Runway Information

Runway 10/28

Dimensions: 2800 x 60 ft. / 853 x 18 m
Surface: turf, in fair condition
RUNWAY 10  RUNWAY 28
Traffic pattern: leftleft
Obstructions: none30 ft. pline, marked

Airport Ownership and Management from official FAA records

Ownership: Privately-owned
Owner: RUSSELL REED
47399 WCR 21
NUNN, CO 80648
Phone 970-897-3066
Manager: RUSSELL REED
47399 WCR 21
NUNN, CO 80648
Phone 970-897-3066
EMAIL: 4REED@EZLINK.COM

Airport Operational Statistics

Aircraft based on the field: 1
Single engine airplanes: 1
    

Additional Remarks

OWNER DESIRES CHARTING.
FOR CD CTC DENVER APCH AT 303-342-1916.

Instrument Procedures

There are no published instrument procedures at 1CD1.

Some nearby airports with instrument procedures:

KFNL - Northern Colorado Regional Airport (16 nm SW)
KGXY - Greeley-Weld County Airport (19 nm SE)
KCYS - Cheyenne Regional Airport/Jerry Olson Field (28 nm N)
KLMO - Vance Brand Airport (34 nm SW)
KEIK - Erie Municipal Airport (42 nm S)
 
Loc | Ops | Rwys | IFR | FBO | Links
Com | Nav | Svcs | Stats | Notes

AirBoss

 
Area around 1CD1 (Reed International Airport)
 
Road maps at: MapQuest Bing Google
 
Aerial photo
WARNING: Photo may not be current or correct
Aerial photo of 1CD1 (Reed International Airport)
Photo taken 12-Apr-2005

Do you have a better or more recent aerial photo of Reed International Airport that you would like to share? If so, please send us your photo.

 
Sectional chart

 
Airport distance calculator
Flying to Reed International Airport? Find the distance to fly.

From to 1CD1

Sunrise and sunset
Times for 27-Nov-2020
 Local
(UTC-7)
 Zulu
(UTC)
Morning civil twilight06:3213:32
Sunrise07:0214:02
Sunset16:3323:33
Evening civil twilight17:0300:03

Current date and time
Zulu (UTC)  27-Nov-2020 21:48:44
Local (UTC-7)  27-Nov-2020 14:48:44
 
METAR
KFNL 
16nm SW 
272056Z 18004KT 10SM CLR 06/M06 A3019 RMK AO2 SLP233 T00611061 56024
KGXY 
20nm SE 
272056Z AUTO 19006KT 10SM CLR 07/M06 A3020 RMK AO2 SLP256 T00671061 56025
KFEW 
27nm N 
272058Z AUTO 20011KT 10SM CLR 05/M09 A3018 RMK AO2 SLP244 T00491094 57015 $
KCYS 
28nm N 
272053Z 21011G19KT 10SM CLR 05/M08 A3015 RMK AO2 SLP239 T00501083 56015
TAF
KCYS 
28nm N 
271720Z 2718/2818 22013G23KT P6SM SKC FM280000 27010KT P6SM SKC FM281600 27013G23KT P6SM SKC
NOTAMs
Click for the latest NOTAMs
NOTAMs are issued by the DoD/FAA and will open in a separate window not controlled by AirNav.

 

 
 

Would you like to see your business listed on this page?

 If your business provides an interesting product or service to pilots, flight crews, aircraft, or users of the Reed International Airport, you should consider listing it here.  To start the listing process, click on the button below
 
Add a business
 

Other Pages about Reed International Airport

Update a link
 
Copyright © AirNav, LLC. All rights reserved. Privacy Policy  Contact